CYOA

Ekati Airport

Ekati, Northwest Territories, Canada
METAR CYOA 101500Z 20023G28KT 5SM BLSN SCT140 M06/M07 A2920 RMK AC3
Observed Flight Rules
Dec-10 @ 15:00 UTC (58 minutes ago) Marginal Visual Flight Rules
Wind Visibility Clouds Conditions
200° at 23 knots
 Gusting to 28 knots
5 miles
  • Scattered at 14,000' AGL
  • Blowing
  • Snow
Temperatures Readings
Current -6°C / 21°F
Dewpoint -7°C / 19°F
Humidity 93%
Altimeter 29.2" Hg
Pressure 989 hPa
Elevation 469
METAR CYOA 101500Z 20023G28KT 5SM BLSN SCT140 M06/M07 A2920 RMK AC3
Observed Flight Rules
Dec-10 @ 15:00 UTC
(58 minutes ago)
MVFR
Wind Visibility
200° at 23 knots
 Gusting to 28 knots
5 miles
Clouds
  • Scattered at 14,000' AGL
Conditions
  • Blowing
  • Snow
Temperature Dewpoint
-6°C / 21°F -7°C / 19°F
Humidity Altimeter Pressure
93% 29.2" Hg 989 hPa